Time;durP1;ratioP1;P1;durP2;ratioP2;P2;SDS_P1;SDS_P2;PMS_P1;PMS_P2;Temp;Humidity;BMP_temperature;BMP_pressure;BME280_temperature;BME280_humidity;BME280_pressure;Samples;Min_cycle;Max_cycle;Signal;HPM_P1;HPM_P2
2023/07/08 00:01:46;;;;;;;3.42;3.10;;;;;;;18.24;64.74;100384.19;10631698;27;20043;-71
2023/07/08 00:06:49;;;;;;;4.50;3.63;;;;;;;18.28;63.67;100384.84;10631936;27;20113;-71
2023/07/08 00:11:51;;;;;;;4.55;3.38;;;;;;;18.08;64.53;100381.53;10632331;27;20047;-71
2023/07/08 00:16:53;;;;;;;3.28;2.83;;;;;;;18.07;64.24;100385.16;10631608;27;20081;-71
2023/07/08 00:21:55;;;;;;;3.60;2.92;;;;;;;17.77;65.19;100392.19;10630883;27;20490;-71
2023/07/08 00:26:56;;;;;;;4.30;3.22;;;;;;;17.88;66.16;100403.06;10630527;27;20059;-72
2023/07/08 00:31:58;;;;;;;3.83;3.50;;;;;;;17.73;66.41;100402.09;10630920;27;20039;-72
2023/07/08 00:37:00;;;;;;;4.05;3.58;;;;;;;17.46;67.73;100408.94;10629545;27;20035;-71
2023/07/08 00:42:12;;;;;;;4.00;3.70;;;;;;;17.53;67.56;100411.19;10628611;27;20043;-71
2023/07/08 00:47:15;;;;;;;3.38;3.08;;;;;;;17.36;67.73;100412.09;10628070;27;20118;-71
2023/07/08 00:52:22;;;;;;;4.70;3.67;;;;;;;17.40;66.81;100408.34;10609194;27;20151;-72
2023/07/08 00:57:29;;;;;;;3.83;3.50;;;;;;;17.30;67.85;100411.56;10608810;27;20043;-72
2023/07/08 01:02:35;;;;;;;3.85;3.55;;;;;;;17.14;68.67;100399.09;10609043;27;20134;-71
2023/07/08 01:07:42;;;;;;;3.15;2.78;;;;;;;17.01;68.52;100402.50;10609371;27;20077;-71
2023/07/08 01:12:52;;;;;;;3.40;3.10;;;;;;;16.88;68.33;100391.66;10609019;27;20553;-71
2023/07/08 01:17:54;;;;;;;3.08;2.88;;;;;;;16.77;68.68;100394.84;10627284;27;20035;-72
2023/07/08 01:22:56;;;;;;;3.50;3.20;;;;;;;16.93;68.78;100391.41;10608751;27;20039;-71
2023/07/08 01:27:58;;;;;;;3.72;3.00;;;;;;;16.81;68.66;100393.75;10627149;27;20066;-71
2023/07/08 01:33:05;;;;;;;3.30;3.00;;;;;;;16.85;67.71;100384.69;10626895;27;20039;-71
2023/07/08 01:38:11;;;;;;;4.18;3.47;;;;;;;16.68;68.38;100374.06;10626943;27;20043;-71
2023/07/08 01:43:13;;;;;;;3.97;2.90;;;;;;;16.40;70.08;100378.13;10607803;28;20047;-71
2023/07/08 01:48:18;;;;;;;3.33;2.92;;;;;;;16.57;68.56;100379.91;10608359;28;20078;-73
2023/07/08 01:53:27;;;;;;;3.38;3.03;;;;;;;16.39;68.77;100375.56;10625586;28;20042;-71
2023/07/08 01:58:29;;;;;;;3.13;2.65;;;;;;;16.48;67.55;100384.84;10625382;28;20151;-72
2023/07/08 02:03:31;;;;;;;3.25;2.90;;;;;;;16.34;68.20;100370.47;10607304;28;20401;-71
2023/07/08 02:08:33;;;;;;;3.95;3.20;;;;;;;16.60;67.20;100358.53;10626029;28;20504;-71
2023/07/08 02:13:35;;;;;;;3.33;2.92;;;;;;;16.49;66.90;100370.63;10608162;28;20043;-72
2023/07/08 02:18:36;;;;;;;3.25;2.83;;;;;;;16.44;66.94;100373.53;10608846;27;20126;-71
2023/07/08 02:23:39;;;;;;;3.33;2.40;;;;;;;16.44;66.87;100370.88;10634435;27;20043;-71
2023/07/08 02:28:40;;;;;;;3.80;2.85;;;;;;;16.52;65.03;100358.06;10634093;27;20072;-72
2023/07/08 02:33:42;;;;;;;2.78;2.58;;;;;;;16.50;64.50;100348.47;10633992;27;20230;-71
2023/07/08 02:38:46;;;;;;;3.22;2.92;;;;;;;16.62;63.38;100353.16;10634277;27;20107;-71
2023/07/08 02:43:47;;;;;;;2.58;2.13;;;;;;;16.66;62.10;100346.75;10633800;27;20118;-71
2023/07/08 02:48:49;;;;;;;3.72;2.55;;;;;;;16.77;62.19;100354.16;10634768;27;20042;-71
2023/07/08 02:53:51;;;;;;;4.97;3.40;;;;;;;16.72;61.24;100353.53;10598478;27;20510;-72
2023/07/08 02:58:53;;;;;;;2.80;2.40;;;;;;;16.90;61.01;100358.75;10614904;27;20054;-72
2023/07/08 03:03:58;;;;;;;2.67;2.47;;;;;;;16.90;61.25;100356.09;10634087;27;20039;-71
2023/07/08 03:09:00;;;;;;;2.75;2.40;;;;;;;16.80;61.83;100352.22;10614110;27;20058;-71
2023/07/08 03:14:02;;;;;;;3.97;2.90;;;;;;;16.87;61.66;100356.28;10614746;27;20085;-71
2023/07/08 03:19:05;;;;;;;3.45;2.47;;;;;;;16.95;61.66;100347.03;10613181;27;20104;-71
2023/07/08 03:24:13;;;;;;;4.20;3.08;;;;;;;16.78;62.61;100347.94;10612600;27;20093;-71
2023/07/08 03:29:18;;;;;;;4.05;2.63;;;;;;;16.92;61.95;100356.03;10611901;27;20074;-71
2023/07/08 03:34:21;;;;;;;3.85;2.67;;;;;;;17.02;61.72;100353.75;10611881;27;20134;-71
2023/07/08 03:39:25;;;;;;;3.92;2.35;;;;;;;17.04;61.82;100358.00;10630494;27;20043;-71
2023/07/08 03:44:27;;;;;;;2.58;2.38;;;;;;;17.13;61.77;100352.25;10611483;27;20159;-72
2023/07/08 03:49:28;;;;;;;3.17;2.85;;;;;;;17.13;62.05;100354.91;10611123;27;20039;-71
2023/07/08 03:54:31;;;;;;;2.85;2.65;;;;;;;17.23;61.71;100362.38;10610561;27;20049;-72
2023/07/08 03:59:33;;;;;;;4.70;2.38;;;;;;;17.21;62.25;100354.47;10611020;27;20042;-72
2023/07/08 04:04:37;;;;;;;5.00;2.70;;;;;;;17.35;61.62;100356.34;10609696;27;20042;-71
2023/07/08 04:09:39;;;;;;;2.70;2.50;;;;;;;17.52;61.25;100356.28;10609457;27;20512;-72
2023/07/08 04:14:42;;;;;;;3.08;2.75;;;;;;;17.70;60.76;100364.19;10628279;27;20036;-72
2023/07/08 04:19:44;;;;;;;2.60;2.38;;;;;;;17.86;60.06;100362.41;10627440;27;20043;-72
2023/07/08 04:24:46;;;;;;;3.78;3.10;;;;;;;18.05;59.54;100367.53;10609887;27;20039;-72
2023/07/08 04:29:48;;;;;;;3.35;2.67;;;;;;;18.29;58.75;100357.31;10628032;27;20390;-71
2023/07/08 04:34:53;;;;;;;2.97;2.40;;;;;;;18.39;58.54;100355.81;10626866;27;20035;-71
2023/07/08 04:39:55;;;;;;;2.60;2.30;;;;;;;18.54;58.16;100349.56;10626599;27;20100;-71
2023/07/08 04:44:57;;;;;;;2.83;2.50;;;;;;;18.57;57.92;100356.50;10626184;27;20063;-71
2023/07/08 04:49:59;;;;;;;4.18;2.50;;;;;;;18.73;58.17;100364.47;10626520;27;20042;-72
2023/07/08 04:55:00;;;;;;;3.72;2.97;;;;;;;18.98;56.44;100364.69;10627100;27;20443;-71
2023/07/08 05:00:06;;;;;;;3.45;2.72;;;;;;;19.20;56.13;100358.03;10626976;27;20046;-71
2023/07/08 05:05:08;;;;;;;3.63;2.78;;;;;;;19.43;55.24;100370.75;10627335;27;20114;-71
2023/07/08 05:10:10;;;;;;;3.13;2.65;;;;;;;19.47;55.39;100374.94;10626446;27;20071;-71
2023/07/08 05:15:13;;;;;;;3.10;2.80;;;;;;;19.59;54.50;100374.19;10626535;27;20035;-71
2023/07/08 05:20:15;;;;;;;3.20;2.30;;;;;;;19.97;54.01;100380.72;10626786;27;20051;-71
2023/07/08 05:25:19;;;;;;;2.75;2.17;;;;;;;20.18;52.64;100379.28;10626782;27;20484;-71
2023/07/08 05:30:20;;;;;;;6.45;2.13;;;;;;;20.68;51.89;100382.22;10626905;27;20043;-71
2023/07/08 05:35:24;;;;;;;2.88;2.58;;;;;;;21.06;51.28;100379.56;10626174;27;20042;-72
2023/07/08 05:40:29;;;;;;;2.42;2.08;;;;;;;21.63;49.35;100381.78;10625609;27;20126;-71
2023/07/08 05:45:30;;;;;;;3.40;2.30;;;;;;;22.00;48.52;100382.63;10624855;28;20036;-73
2023/07/08 05:50:32;;;;;;;3.30;2.22;;;;;;;22.32;49.19;100390.13;10605971;28;20050;-73
2023/07/08 05:55:34;;;;;;;3.97;2.20;;;;;;;22.69;47.47;100395.34;10629417;27;20040;-73
2023/07/08 06:00:36;;;;;;;2.88;2.00;;;;;;;23.02;47.70;100394.59;10633561;27;20050;-72
2023/07/08 06:05:40;;;;;;;2.33;2.13;;;;;;;23.27;46.69;100396.22;10633559;27;20039;-74
2023/07/08 06:10:44;;;;;;;2.60;1.95;;;;;;;23.85;45.91;100389.72;10633654;27;20130;-72
2023/07/08 06:15:45;;;;;;;3.05;2.35;;;;;;;24.28;43.76;100393.41;10633738;27;20542;-73
2023/07/08 06:20:55;;;;;;;4.32;2.15;;;;;;;24.74;42.80;100397.59;10633778;27;20047;-72
2023/07/08 06:25:57;;;;;;;2.42;2.15;;;;;;;25.04;42.50;100394.97;10633331;27;20507;-72
2023/07/08 06:30:59;;;;;;;2.83;1.98;;;;;;;25.02;42.79;100396.09;10633530;27;20062;-72
2023/07/08 06:36:02;;;;;;;2.20;1.80;;;;;;;25.47;41.61;100390.41;10634970;27;20035;-73
2023/07/08 06:41:07;;;;;;;2.33;2.10;;;;;;;25.75;40.65;100386.09;10633777;27;20045;-74
2023/07/08 06:46:09;;;;;;;3.63;2.30;;;;;;;26.00;39.64;100380.25;10632886;27;20043;-74
2023/07/08 06:51:11;;;;;;;1.75;1.60;;;;;;;26.35;39.53;100384.25;10632979;27;20039;-74
2023/07/08 06:56:13;;;;;;;3.92;2.53;;;;;;;26.90;39.33;100382.63;10616236;27;20111;-74
2023/07/08 07:01:15;;;;;;;2.28;2.08;;;;;;;27.32;39.05;100384.13;10634007;27;20042;-74
2023/07/08 07:06:17;;;;;;;2.80;2.22;;;;;;;27.55;39.91;100377.34;10633654;27;20031;-75
2023/07/08 07:11:19;;;;;;;5.63;2.22;;;;;;;27.82;40.09;100376.50;10633897;27;20046;-74
2023/07/08 07:16:21;;;;;;;4.50;1.90;;;;;;;28.07;38.56;100372.22;10637983;27;20112;-73
2023/07/08 07:21:23;;;;;;;4.57;2.10;;;;;;;27.80;38.33;100374.94;10634168;27;20081;-73
2023/07/08 07:26:25;;;;;;;2.35;1.88;;;;;;;28.16;36.92;100370.44;10630958;27;20110;-73
2023/07/08 07:31:27;;;;;;;2.20;2.00;;;;;;;28.48;36.07;100375.31;10630603;27;20039;-73
2023/07/08 07:36:29;;;;;;;2.42;1.88;;;;;;;28.45;35.81;100375.63;10611856;27;20043;-73
2023/07/08 07:41:31;;;;;;;2.35;1.75;;;;;;;28.59;36.61;100366.94;10630809;27;20130;-75
2023/07/08 07:46:33;;;;;;;2.47;2.00;;;;;;;28.69;36.72;100363.31;10629416;27;20047;-74
2023/07/08 07:51:34;;;;;;;2.40;1.95;;;;;;;28.97;38.27;100358.66;10612064;27;20326;-73
2023/07/08 07:56:37;;;;;;;2.40;2.20;;;;;;;28.98;36.73;100361.19;10628868;27;20059;-74
2023/07/08 08:01:38;;;;;;;2.67;2.42;;;;;;;29.39;37.53;100361.38;10610306;27;20139;-73
2023/07/08 08:06:40;;;;;;;3.78;2.67;;;;;;;29.72;34.49;100354.28;10628901;27;20043;-73
2023/07/08 08:11:42;;;;;;;3.13;2.05;;;;;;;29.61;34.97;100366.25;10631439;27;20074;-71
2023/07/08 08:16:44;;;;;;;2.35;2.15;;;;;;;29.62;35.78;100359.84;10627817;27;20074;-75
2023/07/08 08:21:46;;;;;;;2.30;1.92;;;;;;;29.56;36.21;100357.78;10610932;27;20463;-75
2023/07/08 08:26:48;;;;;;;3.70;2.80;;;;;;;29.99;34.97;100352.31;10640976;27;20039;-78
2023/07/08 08:31:50;;;;;;;3.35;2.35;;;;;;;30.42;35.06;100344.94;10628875;27;20047;-79
2023/07/08 08:36:55;;;;;;;2.35;2.13;;;;;;;30.61;35.82;100352.72;10647987;27;20050;-78
2023/07/08 08:41:57;;;;;;;2.25;2.05;;;;;;;31.18;34.35;100349.09;10640319;27;20051;-78
2023/07/08 08:47:30;;;;;;;3.17;2.83;;;;;;;32.02;31.97;100352.97;10615280;27;20058;-79
2023/07/08 08:52:32;;;;;;;2.35;2.00;;;;;;;32.44;31.99;100349.78;10587734;27;20035;-79
2023/07/08 08:57:45;;;;;;;3.17;2.78;;;;;;;32.71;30.47;100356.50;10648409;27;20043;-79
2023/07/08 09:03:02;;;;;;;2.70;2.50;;;;;;;32.25;32.21;100344.81;10606278;27;20044;-78
2023/07/08 09:08:23;;;;;;;2.90;2.63;;;;;;;32.28;31.43;100348.03;10584142;28;20040;-77
2023/07/08 09:13:31;;;;;;;3.63;2.40;;;;;;;32.25;30.64;100340.22;10583888;28;20043;-77
2023/07/08 09:18:55;;;;;;;5.50;2.72;;;;;;;32.38;29.87;100340.50;10596587;27;20031;-76
2023/07/08 09:24:01;;;;;;;2.88;2.58;;;;;;;33.08;31.31;100350.22;10625093;27;20096;-76
2023/07/08 09:29:08;;;;;;;2.30;2.00;;;;;;;32.48;29.14;100355.72;10625878;27;20050;-75
2023/07/08 09:34:25;;;;;;;4.50;2.20;;;;;;;32.44;26.16;100343.50;10606806;27;20043;-75
2023/07/08 09:39:29;;;;;;;2.40;2.20;;;;;;;32.94;27.02;100345.63;10626019;27;20039;-76
2023/07/08 09:44:33;;;;;;;2.50;2.30;;;;;;;33.06;25.75;100351.44;10624638;27;20059;-76
2023/07/08 09:49:35;;;;;;;3.03;2.42;;;;;;;32.90;26.70;100355.16;10624275;28;20054;-75
2023/07/08 09:54:37;;;;;;;2.47;2.28;;;;;;;33.03;27.99;100341.78;10625629;28;20040;-76
2023/07/08 09:59:45;;;;;;;3.60;2.72;;;;;;;33.60;23.75;100343.81;10606685;28;20089;-75
2023/07/08 10:04:52;;;;;;;2.13;1.92;;;;;;;34.27;24.38;100347.31;10624538;28;20066;-75
2023/07/08 10:09:58;;;;;;;2.42;2.20;;;;;;;34.95;24.52;100355.84;10625392;28;20051;-76
2023/07/08 10:15:17;;;;;;;2.20;2.00;;;;;;;34.58;24.98;100345.09;10625714;28;20085;-76
2023/07/08 10:20:20;;;;;;;2.20;2.00;;;;;;;33.41;24.47;100349.81;10624290;28;20515;-76
2023/07/08 10:25:29;;;;;;;2.08;1.83;;;;;;;33.89;24.69;100345.63;10624021;28;20401;-77
2023/07/08 10:30:41;;;;;;;2.22;2.03;;;;;;;34.44;23.70;100342.38;10625937;28;20073;-76
2023/07/08 10:36:20;;;;;;;2.20;2.00;;;;;;;34.54;25.25;100338.34;10624143;28;20141;-74
2023/07/08 10:41:47;;;;;;;2.20;2.00;;;;;;;35.08;23.13;100339.56;10628559;27;20492;-74
2023/07/08 10:47:13;;;;;;;2.00;1.90;;;;;;;34.27;23.23;100341.84;10633100;27;20035;-76
2023/07/08 10:52:17;;;;;;;5.45;2.30;;;;;;;33.77;24.38;100335.41;10632603;27;20043;-77
2023/07/08 10:57:25;;;;;;;;;;;;;;;33.28;24.62;100338.75;10632685;27;20118;-75
2023/07/08 11:02:37;;;;;;;1.90;1.80;;;;;;;33.33;24.43;100333.56;10631148;27;19965;-76
2023/07/08 11:07:57;;;;;;;2.70;1.98;;;;;;;33.80;23.39;100337.75;10631966;27;20039;-76
2023/07/08 11:13:10;;;;;;;3.03;1.98;;;;;;;34.16;23.28;100317.78;10632452;27;20035;-76
2023/07/08 11:18:18;;;;;;;2.20;2.00;;;;;;;33.72;22.39;100325.06;10638127;27;20104;-77
2023/07/08 11:23:31;;;;;;;2.60;1.88;;;;;;;33.63;22.91;100318.88;10630443;27;20394;-77
2023/07/08 11:28:33;;;;;;;2.00;1.83;;;;;;;33.02;23.51;100315.53;10630810;27;20088;-75
2023/07/08 11:33:36;;;;;;;2.35;2.15;;;;;;;32.77;24.93;100312.22;10629924;27;20049;-75
2023/07/08 11:38:48;;;;;;;3.72;1.63;;;;;;;33.56;24.77;100317.16;10629799;27;20035;-76
2023/07/08 11:43:53;;;;;;;2.22;1.77;;;;;;;34.07;24.58;100311.63;10594000;22;20404;-74
2023/07/08 11:49:00;;;;;;;1.85;1.75;;;;;;;34.86;22.54;100303.28;10546324;28;20062;-74
2023/07/08 11:54:29;;;;;;;1.95;1.80;;;;;;;35.32;22.81;100306.28;10545910;28;20043;-75
2023/07/08 11:59:36;;;;;;;3.60;2.00;;;;;;;35.47;22.70;100306.16;10546268;28;20048;-73
2023/07/08 12:05:01;;;;;;;3.30;2.20;;;;;;;35.32;23.14;100313.63;10546343;28;20040;-73
2023/07/08 12:10:06;;;;;;;2.42;1.83;;;;;;;34.94;23.47;100314.03;10528565;28;20466;-74
2023/07/08 12:15:14;;;;;;;3.90;1.70;;;;;;;34.96;22.48;100300.16;10546394;28;20529;-74
2023/07/08 12:20:37;;;;;;;2.05;1.95;;;;;;;35.54;23.24;100287.03;10544880;28;20048;-75
2023/07/08 12:25:39;;;;;;;2.13;1.93;;;;;;;35.30;21.18;100300.19;10544861;28;20043;-74
2023/07/08 12:30:43;;;;;;;2.40;2.20;;;;;;;35.20;21.50;100294.25;10545664;28;20043;-75
2023/07/08 12:35:45;;;;;;;3.30;2.45;;;;;;;34.98;22.19;100282.59;10544782;28;20040;-74
2023/07/08 12:40:47;;;;;;;2.08;1.88;;;;;;;34.54;22.29;100282.91;10544444;28;20056;-74
2023/07/08 12:45:49;;;;;;;3.22;2.10;;;;;;;34.62;21.90;100280.88;10544178;28;20089;-74
2023/07/08 12:50:51;;;;;;;1.90;1.80;;;;;;;34.64;22.12;100273.31;10545063;28;20040;-73
2023/07/08 12:55:57;;;;;;;2.15;1.90;;;;;;;34.61;22.83;100276.41;10525925;28;20044;-72
2023/07/08 13:01:03;;;;;;;2.53;2.05;;;;;;;34.42;21.48;100288.00;10545370;28;20409;-72
2023/07/08 13:06:07;;;;;;;2.35;1.90;;;;;;;33.05;23.37;100284.38;10525965;28;20040;-72
2023/07/08 13:11:14;;;;;;;2.23;2.03;;;;;;;33.90;22.63;100278.28;10525042;28;20048;-73
2023/07/08 13:16:17;;;;;;;3.58;2.38;;;;;;;34.18;22.79;100275.66;10524170;28;20044;-73
2023/07/08 13:21:19;;;;;;;2.95;2.10;;;;;;;34.33;21.77;100267.38;10507344;28;20047;-73
2023/07/08 13:26:24;;;;;;;2.22;2.03;;;;;;;34.59;21.89;100259.41;10543553;28;20527;-73
2023/07/08 13:31:32;;;;;;;2.15;1.95;;;;;;;34.14;21.77;100258.81;10523640;28;20086;-73
2023/07/08 13:36:40;;;;;;;2.03;1.83;;;;;;;33.84;23.50;100249.06;10542612;28;20405;-73
2023/07/08 13:41:44;;;;;;;2.78;2.03;;;;;;;33.86;22.48;100241.53;10542367;28;20579;-74
2023/07/08 13:46:56;;;;;;;3.55;1.92;;;;;;;33.83;22.61;100250.97;10541961;28;20044;-73
2023/07/08 13:52:13;;;;;;;3.25;2.30;;;;;;;33.51;23.76;100248.72;10542602;28;20048;-74
2023/07/08 13:57:17;;;;;;;2.63;2.20;;;;;;;33.14;22.76;100247.84;10541430;28;20036;-72
2023/07/08 14:02:22;;;;;;;;;;;;;;;33.48;23.25;100243.66;10541741;28;20127;-73
2023/07/08 14:07:25;;;;;;;;;;;;;;;33.55;24.22;100248.13;10523275;28;19920;-74
2023/07/08 14:12:27;;;;;;;2.13;1.92;;;;;;;33.73;23.07;100242.25;10541273;28;19928;-74
2023/07/08 14:17:28;;;;;;;2.15;1.95;;;;;;;33.91;21.80;100247.22;10547696;28;20093;-74
2023/07/08 14:22:30;;;;;;;1.95;1.85;;;;;;;33.52;22.54;100245.81;10531745;28;20110;-74
2023/07/08 14:27:32;;;;;;;2.47;2.00;;;;;;;33.46;22.83;100238.38;10550463;28;20068;-74
2023/07/08 14:32:34;;;;;;;1.80;1.70;;;;;;;33.90;22.71;100234.66;10515565;28;20049;-75
2023/07/08 14:37:36;;;;;;;2.00;1.90;;;;;;;34.05;22.20;100232.72;10515306;28;20059;-74
2023/07/08 14:42:38;;;;;;;2.13;1.92;;;;;;;33.47;22.69;100242.81;10549527;28;20059;-74
2023/07/08 14:47:40;;;;;;;2.03;1.90;;;;;;;34.06;22.10;100231.69;10550678;28;20074;-74
2023/07/08 14:52:41;;;;;;;2.67;2.40;;;;;;;33.69;23.03;100237.38;10531391;28;20051;-73
2023/07/08 14:57:46;;;;;;;2.25;2.05;;;;;;;33.30;24.10;100231.28;10548091;28;20451;-75
2023/07/08 15:02:51;;;;;;;2.50;2.30;;;;;;;34.02;22.20;100235.00;10549283;28;20058;-76
2023/07/08 15:07:54;;;;;;;;;;;;;;;33.97;21.97;100232.03;10531969;28;20039;-74
2023/07/08 15:12:58;;;;;;;2.15;1.95;;;;;;;33.72;23.62;100221.47;10529761;28;20331;-75
2023/07/08 15:18:04;;;;;;;2.10;2.00;;;;;;;34.00;23.25;100221.56;10547395;28;20410;-74
2023/07/08 15:23:07;;;;;;;2.78;2.40;;;;;;;33.29;22.80;100226.88;10547332;28;20086;-74
2023/07/08 15:28:20;;;;;;;2.55;2.22;;;;;;;32.64;23.84;100214.88;10513176;28;20075;-75
2023/07/08 15:33:22;;;;;;;2.30;2.10;;;;;;;33.00;23.64;100214.16;10530732;28;20145;-73
2023/07/08 15:38:23;;;;;;;1.77;1.67;;;;;;;34.06;24.82;100215.31;10547711;28;20382;-73
2023/07/08 15:43:25;;;;;;;2.33;2.13;;;;;;;34.84;21.70;100217.94;10546461;28;20044;-73
2023/07/08 15:48:27;;;;;;;1.95;1.75;;;;;;;34.93;22.77;100211.31;10546242;28;20032;-72
2023/07/08 15:53:29;;;;;;;3.35;2.00;;;;;;;34.37;23.48;100208.63;10547338;28;20050;-72
2023/07/08 15:58:33;;;;;;;2.55;1.73;;;;;;;33.58;24.70;100211.47;10545803;28;20067;-73
2023/07/08 16:03:36;;;;;;;2.25;2.05;;;;;;;32.87;26.25;100213.94;10545374;28;20051;-72
2023/07/08 16:08:40;;;;;;;2.30;2.10;;;;;;;32.45;26.08;100217.31;10528101;28;20444;-72
2023/07/08 16:13:44;;;;;;;2.97;2.15;;;;;;;31.94;25.82;100217.09;10528014;28;20115;-72
2023/07/08 16:18:46;;;;;;;2.85;2.17;;;;;;;31.72;25.29;100221.47;10545242;28;20036;-72
2023/07/08 16:23:47;;;;;;;2.72;1.90;;;;;;;31.96;26.37;100220.47;10527089;28;20048;-72
2023/07/08 16:28:50;;;;;;;2.92;2.10;;;;;;;32.01;26.17;100218.91;10544604;28;20122;-72
2023/07/08 16:33:54;;;;;;;2.45;2.25;;;;;;;32.40;26.93;100215.16;10544792;28;20127;-72
2023/07/08 16:38:57;;;;;;;1.92;1.80;;;;;;;32.67;26.98;100219.09;10544605;28;20032;-72
2023/07/08 16:44:19;;;;;;;1.95;1.75;;;;;;;32.89;27.58;100211.84;10526331;28;20066;-72
2023/07/08 16:49:21;;;;;;;2.47;1.90;;;;;;;32.92;23.62;100207.97;10526081;28;20071;-73
2023/07/08 16:54:24;;;;;;;3.50;2.47;;;;;;;32.77;25.20;100214.22;10545191;28;20071;-73
2023/07/08 16:59:25;;;;;;;3.33;2.03;;;;;;;32.64;25.34;100211.31;10544642;28;20043;-72
2023/07/08 17:04:28;;;;;;;2.85;2.58;;;;;;;32.24;24.09;100215.28;10543697;28;20119;-73
2023/07/08 17:09:30;;;;;;;2.10;2.00;;;;;;;32.28;26.83;100212.03;10543714;28;20067;-73
2023/07/08 17:14:33;;;;;;;2.28;2.13;;;;;;;31.95;25.49;100208.75;10542972;28;20093;-72
2023/07/08 17:19:35;;;;;;;3.60;2.20;;;;;;;31.48;24.74;100206.19;10524449;28;20451;-71
2023/07/08 17:24:37;;;;;;;2.50;2.30;;;;;;;31.30;24.26;100195.59;10542675;28;20070;-73
2023/07/08 17:29:39;;;;;;;2.53;2.33;;;;;;;31.04;25.46;100187.75;10541961;28;20051;-73
2023/07/08 17:34:40;;;;;;;2.38;2.17;;;;;;;30.87;24.79;100187.00;10541191;28;20039;-73
2023/07/08 17:39:42;;;;;;;2.08;1.90;;;;;;;30.67;25.28;100186.50;10541228;28;20110;-73
2023/07/08 17:44:44;;;;;;;2.63;2.15;;;;;;;30.55;27.51;100185.22;10554895;22;20044;-72
2023/07/08 17:49:46;;;;;;;2.65;2.30;;;;;;;30.32;28.34;100182.38;10538838;28;20485;-73
2023/07/08 17:54:47;;;;;;;3.63;2.42;;;;;;;30.05;29.93;100176.28;10539662;28;20052;-73
2023/07/08 17:59:49;;;;;;;2.30;2.10;;;;;;;29.93;29.80;100172.25;10539579;28;20044;-73
2023/07/08 18:04:51;;;;;;;2.00;1.90;;;;;;;29.62;31.57;100178.34;10539422;28;20052;-73
2023/07/08 18:09:53;;;;;;;2.63;2.42;;;;;;;29.41;32.25;100172.53;10521438;28;20086;-72
2023/07/08 18:14:55;;;;;;;2.40;2.17;;;;;;;29.00;32.35;100180.56;10538437;28;20056;-72
2023/07/08 18:19:57;;;;;;;2.67;2.47;;;;;;;28.86;31.97;100181.13;10539338;28;20040;-72
2023/07/08 18:25:00;;;;;;;4.65;2.47;;;;;;;28.70;33.09;100179.22;10539988;28;20458;-75
2023/07/08 18:30:03;;;;;;;2.70;2.50;;;;;;;28.49;35.58;100182.31;10564060;28;20067;-73
2023/07/08 18:35:22;;;;;;;4.18;2.83;;;;;;;28.27;37.03;100182.84;10564109;28;20048;-74
2023/07/08 18:40:29;;;;;;;3.00;2.70;;;;;;;27.98;37.42;100192.09;10563560;28;20055;-74
2023/07/08 18:45:31;;;;;;;3.75;2.85;;;;;;;27.66;38.09;100193.47;10564576;28;20043;-73
2023/07/08 18:50:34;;;;;;;3.13;2.75;;;;;;;27.45;38.94;100192.09;10581609;28;20040;-73
2023/07/08 18:55:36;;;;;;;3.83;2.95;;;;;;;27.19;39.50;100197.41;10580954;28;20390;-74
2023/07/08 19:00:39;;;;;;;3.13;2.65;;;;;;;27.00;39.27;100188.38;10582356;28;20044;-73
2023/07/08 19:05:41;;;;;;;3.15;2.70;;;;;;;26.75;39.64;100202.56;10587892;28;20111;-73
2023/07/08 19:10:43;;;;;;;3.58;3.28;;;;;;;26.61;39.90;100198.50;10569718;28;20458;-72
2023/07/08 19:15:45;;;;;;;4.28;3.88;;;;;;;26.51;40.06;100212.00;10569202;28;20051;-73
2023/07/08 19:20:49;;;;;;;3.55;3.35;;;;;;;26.29;40.97;100217.72;10587813;28;20047;-73
2023/07/08 19:25:51;;;;;;;4.82;4.43;;;;;;;26.00;42.33;100215.09;10569448;28;20036;-73
2023/07/08 19:30:55;;;;;;;4.65;4.25;;;;;;;25.87;42.66;100215.38;10569182;28;20508;-72
2023/07/08 19:35:59;;;;;;;3.92;3.58;;;;;;;25.58;43.62;100232.31;10568448;28;20044;-74
2023/07/08 19:41:02;;;;;;;4.77;4.37;;;;;;;25.40;44.25;100228.63;10568784;28;20143;-72
2023/07/08 19:46:05;;;;;;;4.10;3.75;;;;;;;25.22;44.93;100232.97;10568154;28;20292;-73
2023/07/08 19:51:07;;;;;;;4.55;4.15;;;;;;;24.90;45.32;100236.69;10586261;28;20568;-73
2023/07/08 19:56:13;;;;;;;4.47;4.07;;;;;;;24.77;45.76;100246.81;10568308;28;20046;-73
2023/07/08 20:01:15;;;;;;;4.97;4.55;;;;;;;25.08;45.14;100251.22;10586499;28;20122;-74
2023/07/08 20:06:22;;;;;;;5.75;5.25;;;;;;;24.80;45.92;100254.63;10567450;28;20454;-72
2023/07/08 20:11:24;;;;;;;5.68;5.20;;;;;;;24.74;44.97;100255.13;10585592;28;20162;-74
2023/07/08 20:16:29;;;;;;;7.03;6.47;;;;;;;24.46;45.54;100257.53;10566469;28;20139;-74
2023/07/08 20:21:31;;;;;;;6.40;5.43;;;;;;;24.26;46.60;100258.34;10585395;28;20515;-72
2023/07/08 20:26:35;;;;;;;5.30;4.90;;;;;;;24.08;46.79;100258.09;10585611;28;20067;-73
2023/07/08 20:31:37;;;;;;;6.00;5.38;;;;;;;23.95;46.74;100266.34;10584993;28;20093;-73
2023/07/08 20:36:39;;;;;;;5.50;5.10;;;;;;;23.73;47.05;100269.09;10566466;28;20080;-73
2023/07/08 20:41:41;;;;;;;5.53;5.13;;;;;;;23.39;48.56;100270.00;10566218;28;20485;-72
2023/07/08 20:46:46;;;;;;;5.30;4.90;;;;;;;23.24;48.82;100284.69;10584502;28;20103;-72
2023/07/08 20:51:48;;;;;;;5.50;5.10;;;;;;;23.02;50.17;100282.88;10583859;28;20067;-72
2023/07/08 20:56:50;;;;;;;5.53;5.13;;;;;;;23.02;50.62;100285.56;10583610;28;20385;-73
2023/07/08 21:01:54;;;;;;;5.88;5.40;;;;;;;22.78;51.59;100293.66;10584240;28;20493;-73
2023/07/08 21:06:56;;;;;;;5.75;5.25;;;;;;;22.81;51.06;100300.63;10583424;28;20050;-73
2023/07/08 21:11:58;;;;;;;5.78;5.28;;;;;;;22.75;52.34;100296.56;10583539;28;20399;-74
2023/07/08 21:16:59;;;;;;;5.78;5.38;;;;;;;22.71;52.23;100307.66;10582796;28;20053;-73
2023/07/08 21:22:01;;;;;;;5.72;5.32;;;;;;;22.65;52.14;100300.94;10565247;28;20385;-73
2023/07/08 21:27:04;;;;;;;5.25;4.85;;;;;;;22.59;51.49;100302.28;10582818;28;20086;-72
2023/07/08 21:32:07;;;;;;;5.72;5.20;;;;;;;22.44;51.71;100300.78;10582447;28;20052;-72
2023/07/08 21:37:10;;;;;;;5.93;5.43;;;;;;;22.28;52.01;100305.63;10582792;28;20046;-72
2023/07/08 21:42:13;;;;;;;5.55;5.05;;;;;;;22.20;52.91;100316.91;10564150;28;20100;-72
2023/07/08 21:47:15;;;;;;;6.82;6.32;;;;;;;22.11;53.62;100318.41;10547426;28;20051;-72
2023/07/08 21:52:17;;;;;;;10.10;9.30;;;;;;;22.04;54.28;100321.66;10582495;28;20057;-72
2023/07/08 21:57:18;;;;;;;9.73;9.02;;;;;;;22.12;54.04;100328.19;10581317;28;20036;-72
2023/07/08 22:02:20;;;;;;;9.13;8.32;;;;;;;22.10;54.57;100327.44;10581823;28;20043;-72
2023/07/08 22:07:22;;;;;;;8.10;7.30;;;;;;;22.38;52.76;100331.56;10581582;28;20056;-72
2023/07/08 22:12:24;;;;;;;7.07;6.00;;;;;;;22.07;52.06;100334.84;10582161;28;20114;-72
2023/07/08 22:17:26;;;;;;;6.28;5.57;;;;;;;21.82;53.21;100333.09;10580962;28;20046;-72
2023/07/08 22:22:29;;;;;;;6.13;5.57;;;;;;;21.76;53.79;100330.91;10581623;28;20067;-72
2023/07/08 22:27:31;;;;;;;6.18;5.65;;;;;;;21.60;54.40;100321.34;10581568;28;20089;-72
2023/07/08 22:32:32;;;;;;;8.13;5.55;;;;;;;21.18;56.23;100322.56;10563598;28;20055;-73
2023/07/08 22:37:34;;;;;;;6.30;5.80;;;;;;;20.87;56.99;100331.91;10585000;28;20040;-72
2023/07/08 22:42:38;;;;;;;5.95;5.45;;;;;;;20.76;57.72;100343.34;10589085;28;20520;-72
2023/07/08 22:47:40;;;;;;;5.93;5.43;;;;;;;20.79;56.00;100347.59;10572436;28;20052;-72
2023/07/08 22:52:45;;;;;;;5.43;5.03;;;;;;;20.83;56.65;100354.44;10588498;28;20040;-71
2023/07/08 22:57:47;;;;;;;5.72;5.22;;;;;;;20.88;55.87;100354.97;10588577;28;20039;-72
2023/07/08 23:02:49;;;;;;;6.45;5.85;;;;;;;21.23;56.05;100354.31;10587820;28;20067;-73
2023/07/08 23:07:51;;;;;;;5.88;5.38;;;;;;;20.76;58.12;100362.03;10587654;28;20442;-73
2023/07/08 23:12:52;;;;;;;7.65;5.90;;;;;;;20.76;57.96;100363.84;10588247;28;20115;-73
2023/07/08 23:17:54;;;;;;;6.60;5.35;;;;;;;20.73;58.04;100369.41;10587271;28;20040;-72